createdAt,value
2023-01-29T00:01:56.355Z,28.88
2023-01-29T00:04:24.206Z,40.08
2023-01-29T00:06:51.700Z,43.17
2023-01-29T00:09:19.181Z,35.63
2023-01-29T00:11:46.571Z,40.05
2023-01-29T00:14:14.216Z,37.20
2023-01-29T00:16:41.585Z,40.65
2023-01-29T00:19:08.956Z,39.25
2023-01-29T00:21:36.550Z,33.53
2023-01-29T00:24:04.036Z,40.83
2023-01-29T00:26:31.390Z,35.78
2023-01-29T00:29:00.759Z,33.95
2023-01-29T00:31:28.406Z,37.80
2023-01-29T00:33:55.823Z,37.05
2023-01-29T00:36:23.521Z,34.60
2023-01-29T00:38:59.710Z,43.55
2023-01-29T00:41:49.167Z,32.08
2023-01-29T00:44:37.004Z,31.73
2023-01-29T00:47:04.963Z,29.02
2023-01-29T00:49:32.295Z,30.58
2023-01-29T00:52:19.437Z,29.67
2023-01-29T00:54:46.893Z,30.27
2023-01-29T00:57:14.219Z,27.10
2023-01-29T00:59:41.676Z,30.77
2023-01-29T01:02:28.920Z,30.85
2023-01-29T01:04:57.333Z,35.55
2023-01-29T01:07:24.718Z,31.58
2023-01-29T01:10:12.195Z,26.42
2023-01-29T01:12:39.668Z,29.75
2023-01-29T01:15:07.273Z,27.33
2023-01-29T01:17:35.173Z,29.50
2023-01-29T01:20:03.034Z,27.05
2023-01-29T01:22:32.153Z,26.98
2023-01-29T01:25:00.214Z,28.65
2023-01-29T01:27:27.579Z,33.65
2023-01-29T01:29:54.943Z,26.55
2023-01-29T01:32:22.403Z,23.83
2023-01-29T01:34:49.789Z,20.40
2023-01-29T01:37:17.106Z,24.85
2023-01-29T01:39:49.347Z,25.83
2023-01-29T01:42:16.822Z,21.48
2023-01-29T01:45:04.695Z,26.83
2023-01-29T01:50:21.358Z,25.17
2023-01-29T01:52:52.995Z,29.52
2023-01-29T01:55:22.352Z,22.10
2023-01-29T01:57:53.743Z,17.70
2023-01-29T02:00:22.201Z,20.48
2023-01-29T02:03:09.379Z,23.27
2023-01-29T02:05:57.206Z,24.17
2023-01-29T02:08:55.827Z,24.42
2023-01-29T02:11:23.335Z,19.05
2023-01-29T02:13:53.932Z,20.80
2023-01-29T02:16:26.535Z,22.60
2023-01-29T02:18:56.197Z,18.27
2023-01-29T02:24:55.962Z,22.83
2023-01-29T02:36:50.044Z,21.23
2023-01-29T02:44:54.589Z,26.23
2023-01-29T02:52:44.861Z,18.58
2023-01-29T02:55:18.731Z,19.52
2023-01-29T02:57:48.160Z,16.60
2023-01-29T03:00:19.881Z,19.30
2023-01-29T03:08:45.660Z,17.95
2023-01-29T03:11:15.649Z,13.07
2023-01-29T03:16:26.412Z,16.55
2023-01-29T03:19:16.505Z,15.77
2023-01-29T03:21:54.042Z,17.48
2023-01-29T03:27:28.787Z,15.25
2023-01-29T03:30:18.975Z,15.73
2023-01-29T03:32:52.313Z,17.80
2023-01-29T03:35:36.864Z,14.93
2023-01-29T03:38:10.525Z,17.52
2023-01-29T03:54:14.501Z,12.93
2023-01-29T04:02:04.392Z,17.95
2023-01-29T04:04:33.920Z,14.77
2023-01-29T04:07:18.319Z,14.73
2023-01-29T04:09:52.439Z,12.82
2023-01-29T04:12:23.715Z,15.70
2023-01-29T04:14:52.041Z,18.45
2023-01-29T04:17:23.401Z,15.68
2023-01-29T04:20:02.144Z,16.00
2023-01-29T04:22:35.538Z,17.67
2023-01-29T04:25:08.751Z,16.08
2023-01-29T04:39:12.170Z,16.40
2023-01-29T04:41:52.098Z,15.80
2023-01-29T04:44:24.936Z,12.82
2023-01-29T04:52:16.105Z,11.45
2023-01-29T04:55:10.935Z,15.25
2023-01-29T04:58:03.579Z,13.65
2023-01-29T05:00:35.828Z,14.10
2023-01-29T05:05:31.936Z,12.68
2023-01-29T05:07:59.728Z,17.23
2023-01-29T05:10:27.363Z,15.05
2023-01-29T05:13:00.374Z,13.20
2023-01-29T05:15:34.182Z,15.50
2023-01-29T05:18:03.280Z,14.32
2023-01-29T05:20:33.772Z,12.70
2023-01-29T05:23:01.165Z,15.30
2023-01-29T05:25:31.297Z,13.40
2023-01-29T05:28:07.513Z,11.75
2023-01-29T05:30:37.624Z,14.68
2023-01-29T05:33:06.150Z,13.15
2023-01-29T05:35:33.512Z,12.93
2023-01-29T05:38:00.819Z,12.50
2023-01-29T05:40:28.131Z,14.57
2023-01-29T05:42:56.014Z,13.77
2023-01-29T05:45:23.453Z,15.40
2023-01-29T05:47:50.775Z,11.50
2023-01-29T05:50:18.483Z,16.95
2023-01-29T05:52:45.869Z,13.73
2023-01-29T05:55:13.281Z,15.93
2023-01-29T05:57:41.383Z,13.95
2023-01-29T06:00:09.663Z,14.25
2023-01-29T06:02:52.764Z,12.90
2023-01-29T06:05:20.362Z,15.82
2023-01-29T06:07:47.685Z,18.70
2023-01-29T06:10:18.256Z,14.57
2023-01-29T06:12:46.252Z,15.77
2023-01-29T06:15:15.658Z,13.50
2023-01-29T06:17:43.415Z,14.32
2023-01-29T06:20:11.361Z,16.73
2023-01-29T06:22:38.651Z,14.00
2023-01-29T06:25:06.713Z,13.93
2023-01-29T06:27:34.008Z,17.60
2023-01-29T06:30:01.317Z,18.58
2023-01-29T06:32:29.420Z,16.02
2023-01-29T06:34:56.785Z,17.40
2023-01-29T06:37:24.066Z,13.05
2023-01-29T06:39:51.437Z,14.85
2023-01-29T06:42:18.796Z,12.48
2023-01-29T06:44:46.150Z,13.65
2023-01-29T06:47:13.424Z,13.57
2023-01-29T06:49:40.719Z,9.73
2023-01-29T06:52:07.996Z,12.05
2023-01-29T06:54:35.418Z,12.65
2023-01-29T06:57:02.749Z,12.57
2023-01-29T06:59:30.099Z,14.38
2023-01-29T07:01:57.601Z,14.32
2023-01-29T07:04:24.909Z,15.00
2023-01-29T07:06:52.234Z,14.45
2023-01-29T07:09:19.557Z,14.82
2023-01-29T07:11:48.227Z,20.63
2023-01-29T07:14:15.695Z,14.05
2023-01-29T07:16:43.042Z,17.50
2023-01-29T07:19:10.378Z,19.30
2023-01-29T07:21:37.949Z,14.15
2023-01-29T07:24:05.425Z,19.55
2023-01-29T07:26:32.871Z,16.58
2023-01-29T07:29:00.226Z,15.80
2023-01-29T07:31:27.741Z,14.20
2023-01-29T07:33:56.008Z,10.98
2023-01-29T07:36:24.371Z,16.02
2023-01-29T07:38:51.966Z,11.20
2023-01-29T07:41:19.403Z,10.98
2023-01-29T07:43:47.826Z,14.77
2023-01-29T07:46:15.358Z,13.32
2023-01-29T07:48:42.726Z,13.18
2023-01-29T07:51:10.014Z,11.30
2023-01-29T07:53:37.372Z,19.15
2023-01-29T07:56:04.951Z,12.70
2023-01-29T07:58:33.485Z,12.75
2023-01-29T08:01:07.802Z,13.60
2023-01-29T08:03:36.112Z,14.25
2023-01-29T08:06:04.664Z,10.98
2023-01-29T08:08:32.096Z,9.38
2023-01-29T08:11:02.222Z,15.30
2023-01-29T08:13:29.554Z,11.30
2023-01-29T08:16:01.403Z,13.13
2023-01-29T08:18:29.288Z,9.88
2023-01-29T08:21:01.477Z,11.45
2023-01-29T08:23:28.904Z,16.45
2023-01-29T08:25:56.467Z,14.43
2023-01-29T08:28:23.890Z,11.23
2023-01-29T08:30:51.209Z,16.13
2023-01-29T08:33:23.800Z,11.02
2023-01-29T08:35:54.769Z,11.15
2023-01-29T08:38:29.249Z,9.73
2023-01-29T08:41:01.742Z,16.40
2023-01-29T08:43:29.158Z,17.40
2023-01-29T08:45:56.567Z,14.68
2023-01-29T08:48:25.448Z,15.23
2023-01-29T08:50:52.729Z,10.07
2023-01-29T08:53:24.606Z,11.88
2023-01-29T08:55:52.766Z,10.38
2023-01-29T08:58:20.737Z,10.63
2023-01-29T09:00:48.148Z,9.43
2023-01-29T09:03:15.595Z,9.75
2023-01-29T09:05:43.177Z,11.43
2023-01-29T09:08:10.870Z,11.82
2023-01-29T09:10:38.227Z,11.68
2023-01-29T09:13:06.690Z,16.17
2023-01-29T09:15:34.229Z,11.15
2023-01-29T09:18:05.218Z,13.65
2023-01-29T09:20:34.313Z,10.50
2023-01-29T09:23:06.941Z,11.65
2023-01-29T09:25:34.332Z,14.82
2023-01-29T09:28:02.904Z,13.77
2023-01-29T09:30:33.536Z,16.05
2023-01-29T09:33:01.802Z,13.20
2023-01-29T09:35:29.175Z,12.10
2023-01-29T09:37:57.209Z,13.52
2023-01-29T09:43:13.968Z,8.45
2023-01-29T09:45:50.500Z,15.48
2023-01-29T09:48:18.299Z,12.43
2023-01-29T09:50:48.425Z,18.63
2023-01-29T09:53:38.942Z,12.55
2023-01-29T09:56:21.221Z,13.73
2023-01-29T09:58:48.902Z,15.13
2023-01-29T10:01:33.392Z,13.50
2023-01-29T10:18:31.552Z,6.97
2023-01-29T10:21:28.582Z,9.45
2023-01-29T10:26:52.907Z,11.43
2023-01-29T10:29:22.437Z,14.02
2023-01-29T10:31:54.390Z,15.18
2023-01-29T10:34:52.489Z,16.63
2023-01-29T10:37:24.518Z,16.58
2023-01-29T10:39:52.043Z,15.70
2023-01-29T10:42:41.656Z,16.60
2023-01-29T10:45:30.942Z,14.20
2023-01-29T10:51:26.160Z,15.57
2023-01-29T10:54:08.072Z,15.57
2023-01-29T11:02:03.720Z,16.90
2023-01-29T11:04:32.198Z,12.93
2023-01-29T11:07:00.238Z,17.50
2023-01-29T11:09:50.577Z,17.02
2023-01-29T11:17:31.815Z,13.52
2023-01-29T11:20:00.240Z,15.13
2023-01-29T11:22:29.790Z,16.25
2023-01-29T11:25:19.028Z,14.15
2023-01-29T11:27:50.888Z,13.23
2023-01-29T11:30:38.725Z,12.50
2023-01-29T11:33:12.669Z,16.40
2023-01-29T11:35:40.095Z,13.68
2023-01-29T11:38:28.248Z,20.10
2023-01-29T11:41:18.859Z,9.35
2023-01-29T11:43:46.251Z,10.00
2023-01-29T11:46:15.415Z,10.93
2023-01-29T11:48:50.419Z,13.27
2023-01-29T11:51:24.202Z,12.77
2023-01-29T11:53:58.320Z,12.32
2023-01-29T11:56:43.359Z,12.45
2023-01-29T11:59:29.613Z,9.98
2023-01-29T12:02:06.002Z,12.77
2023-01-29T12:04:42.541Z,14.90
2023-01-29T12:07:22.966Z,13.05
2023-01-29T12:09:56.517Z,13.20
2023-01-29T12:17:53.347Z,14.50
2023-01-29T12:20:28.510Z,19.60
2023-01-29T12:23:12.487Z,13.65
2023-01-29T12:25:48.919Z,14.60
2023-01-29T12:34:47.388Z,14.10
2023-01-29T12:37:43.117Z,11.68
2023-01-29T12:40:17.814Z,11.30
2023-01-29T12:42:49.990Z,14.75
2023-01-29T12:47:55.690Z,13.45
2023-01-29T12:50:33.856Z,12.30
2023-01-29T12:55:40.573Z,15.80
2023-01-29T12:58:23.950Z,14.32
2023-01-29T13:00:55.146Z,14.68
2023-01-29T13:03:27.988Z,13.95
2023-01-29T13:06:14.022Z,11.20
2023-01-29T13:08:46.338Z,13.95
2023-01-29T13:16:39.060Z,11.20
2023-01-29T13:19:15.389Z,12.77
2023-01-29T13:21:44.181Z,11.70
2023-01-29T13:24:16.331Z,11.88
2023-01-29T13:26:47.384Z,13.57
2023-01-29T13:29:24.568Z,8.32
2023-01-29T13:31:54.593Z,15.32
2023-01-29T13:34:25.918Z,16.05
2023-01-29T13:36:59.029Z,16.95
2023-01-29T13:42:17.044Z,10.93
2023-01-29T13:44:48.808Z,14.93
2023-01-29T13:47:35.049Z,16.35
2023-01-29T13:57:59.865Z,11.77
2023-01-29T14:05:58.545Z,11.45
2023-01-29T14:08:46.743Z,10.50
2023-01-29T14:13:52.659Z,10.20
2023-01-29T14:19:01.837Z,10.77
2023-01-29T14:21:32.882Z,15.10
2023-01-29T14:24:21.295Z,10.98
2023-01-29T14:26:50.965Z,10.77
2023-01-29T14:32:00.105Z,11.93
2023-01-29T14:34:31.177Z,16.98
2023-01-29T14:37:03.677Z,12.98
2023-01-29T14:39:36.193Z,8.90
2023-01-29T14:42:06.718Z,19.20
2023-01-29T14:53:34.985Z,11.75
2023-01-29T14:58:55.351Z,14.38
2023-01-29T15:01:38.478Z,10.57
2023-01-29T15:04:15.639Z,11.77
2023-01-29T15:17:31.686Z,16.20
2023-01-29T15:19:59.676Z,14.30
2023-01-29T15:22:29.307Z,14.63
2023-01-29T15:25:19.511Z,10.73
2023-01-29T15:30:18.875Z,13.98
2023-01-29T15:32:46.937Z,12.32
2023-01-29T15:38:06.457Z,16.80
2023-01-29T15:40:34.847Z,16.98
2023-01-29T15:43:02.359Z,13.23
2023-01-29T15:45:32.543Z,11.32
2023-01-29T15:48:06.347Z,17.38
2023-01-29T15:50:42.237Z,15.90
2023-01-29T15:53:17.909Z,10.93
2023-01-29T15:55:45.501Z,11.65
2023-01-29T15:58:17.502Z,10.43
2023-01-29T16:00:54.160Z,13.20
2023-01-29T16:03:24.886Z,6.80
2023-01-29T16:05:53.139Z,10.38
2023-01-29T16:08:22.577Z,14.40
2023-01-29T16:10:56.223Z,13.98
2023-01-29T16:13:26.129Z,13.82
2023-01-29T16:15:58.821Z,14.43
2023-01-29T16:18:31.578Z,14.95
2023-01-29T16:21:05.640Z,17.52
2023-01-29T16:23:37.513Z,15.05
2023-01-29T16:26:08.053Z,10.32
2023-01-29T16:28:44.776Z,14.88
2023-01-29T16:31:14.309Z,10.48
2023-01-29T16:33:43.361Z,11.35
2023-01-29T16:36:21.056Z,17.83
2023-01-29T16:38:54.456Z,14.55
2023-01-29T16:46:39.193Z,11.05
2023-01-29T16:52:26.294Z,11.20
2023-01-29T16:54:59.839Z,15.52
2023-01-29T16:57:32.152Z,10.35
2023-01-29T17:00:02.309Z,11.90
2023-01-29T17:02:33.900Z,13.93
2023-01-29T17:05:05.971Z,17.13
2023-01-29T17:07:34.108Z,15.50
2023-01-29T17:10:04.310Z,9.52
2023-01-29T17:12:32.698Z,13.05
2023-01-29T17:15:04.276Z,11.88
2023-01-29T17:17:33.989Z,10.23
2023-01-29T17:20:12.827Z,12.82
2023-01-29T17:22:40.558Z,11.85
2023-01-29T17:25:09.749Z,12.63
2023-01-29T17:27:41.761Z,11.68
2023-01-29T17:30:17.782Z,16.65
2023-01-29T17:32:47.325Z,11.73
2023-01-29T17:35:17.135Z,11.60
2023-01-29T17:37:44.932Z,11.05
2023-01-29T17:40:35.879Z,15.68
2023-01-29T17:44:11.841Z,9.65
2023-01-29T17:46:58.783Z,17.38
2023-01-29T17:51:19.586Z,16.00
2023-01-29T17:53:47.583Z,16.48
2023-01-29T17:56:18.311Z,10.52
2023-01-29T17:58:45.726Z,13.82
2023-01-29T18:01:13.136Z,11.60
2023-01-29T18:03:40.606Z,14.32
2023-01-29T18:06:09.613Z,13.30
2023-01-29T18:08:38.771Z,11.63
2023-01-29T18:11:06.631Z,13.07
2023-01-29T18:13:36.343Z,12.25
2023-01-29T18:16:03.833Z,12.45
2023-01-29T18:18:31.282Z,12.77
2023-01-29T18:20:58.820Z,12.40
2023-01-29T18:23:26.063Z,8.25
2023-01-29T18:25:54.924Z,9.75
2023-01-29T18:28:22.295Z,14.32
2023-01-29T18:30:49.666Z,11.88
2023-01-29T18:33:17.602Z,11.15
2023-01-29T18:35:45.760Z,14.68
2023-01-29T18:38:13.035Z,13.18
2023-01-29T18:40:40.443Z,12.32
2023-01-29T18:43:07.805Z,13.73
2023-01-29T18:45:35.413Z,8.98
2023-01-29T18:48:02.827Z,14.13
2023-01-29T18:50:30.178Z,16.52
2023-01-29T18:52:57.605Z,12.27
2023-01-29T18:55:26.778Z,10.65
2023-01-29T18:58:28.621Z,11.73
2023-01-29T19:00:42.200Z,12.70
2023-01-29T19:03:10.727Z,12.95
2023-01-29T19:05:38.137Z,13.55
2023-01-29T19:08:06.055Z,12.63
2023-01-29T19:10:33.780Z,10.50
2023-01-29T19:13:01.200Z,16.35
2023-01-29T19:15:28.592Z,14.57
2023-01-29T19:17:56.717Z,15.85
2023-01-29T19:20:24.116Z,16.52
2023-01-29T19:22:51.428Z,12.13
2023-01-29T19:25:19.847Z,12.68
2023-01-29T19:27:47.742Z,13.13
2023-01-29T19:30:15.327Z,14.18
2023-01-29T19:32:42.652Z,16.75
2023-01-29T19:35:09.995Z,12.00
2023-01-29T19:37:37.426Z,13.75
2023-01-29T19:40:05.672Z,12.00
2023-01-29T19:42:33.000Z,9.43
2023-01-29T19:45:00.244Z,15.07
2023-01-29T19:47:31.345Z,12.70
2023-01-29T19:49:58.724Z,11.05
2023-01-29T19:52:51.210Z,12.13
2023-01-29T19:55:21.308Z,15.20
2023-01-29T19:57:49.048Z,11.38
2023-01-29T20:00:24.390Z,16.10
2023-01-29T20:02:51.807Z,13.90
2023-01-29T20:05:20.721Z,13.95
2023-01-29T20:07:50.003Z,13.30
2023-01-29T20:10:18.064Z,16.30
2023-01-29T20:12:46.458Z,10.73
2023-01-29T20:15:14.741Z,14.63
2023-01-29T20:17:42.151Z,10.32
2023-01-29T20:20:10.276Z,11.70
2023-01-29T20:22:37.605Z,9.77
2023-01-29T20:25:05.136Z,14.02
2023-01-29T20:27:33.490Z,14.30
2023-01-29T20:30:01.076Z,12.88
2023-01-29T20:32:30.166Z,11.38
2023-01-29T20:34:57.820Z,12.52
2023-01-29T20:37:25.152Z,12.25
2023-01-29T20:39:52.383Z,11.40
2023-01-29T20:42:19.724Z,12.35
2023-01-29T20:44:47.194Z,11.63
2023-01-29T20:47:14.651Z,12.20
2023-01-29T20:49:42.013Z,11.85
2023-01-29T20:52:11.086Z,14.20
2023-01-29T20:54:38.479Z,8.95
2023-01-29T20:57:08.490Z,14.10
2023-01-29T20:59:35.802Z,13.85
2023-01-29T21:02:07.700Z,14.82
2023-01-29T21:04:34.982Z,10.73
2023-01-29T21:07:02.354Z,13.93
2023-01-29T21:09:31.951Z,14.75
2023-01-29T21:12:00.489Z,10.30
2023-01-29T21:14:27.792Z,14.25
2023-01-29T21:16:55.163Z,9.88
2023-01-29T21:19:22.709Z,8.35
2023-01-29T21:21:49.946Z,11.65
2023-01-29T21:24:19.048Z,10.45
2023-01-29T21:26:46.941Z,12.18
2023-01-29T21:29:14.913Z,12.05
2023-01-29T21:31:42.843Z,11.95
2023-01-29T21:34:10.628Z,13.15
2023-01-29T21:36:38.517Z,9.90
2023-01-29T21:39:16.841Z,11.10
2023-01-29T21:44:33.501Z,17.42
2023-01-29T21:47:01.399Z,12.35
2023-01-29T21:49:28.700Z,10.98
2023-01-29T21:51:56.092Z,12.38
2023-01-29T21:54:23.398Z,11.27
2023-01-29T21:56:50.793Z,12.35
2023-01-29T21:59:18.035Z,15.02
2023-01-29T22:01:45.296Z,11.25
2023-01-29T22:04:12.668Z,18.75
2023-01-29T22:06:39.961Z,11.68
2023-01-29T22:09:07.397Z,14.63
2023-01-29T22:11:35.028Z,12.93
2023-01-29T22:14:02.517Z,13.15
2023-01-29T22:16:30.114Z,12.85
2023-01-29T22:18:57.449Z,9.27
2023-01-29T22:21:24.964Z,10.73
2023-01-29T22:24:02.204Z,13.07
2023-01-29T22:26:31.017Z,10.00
2023-01-29T22:28:58.987Z,15.27
2023-01-29T22:31:27.990Z,12.90
2023-01-29T22:33:56.614Z,9.93
2023-01-29T22:36:24.088Z,12.82
2023-01-29T22:38:51.589Z,10.48
2023-01-29T22:41:18.985Z,11.40
2023-01-29T22:43:46.518Z,14.23
2023-01-29T22:46:14.447Z,14.65
2023-01-29T22:48:42.953Z,12.55
2023-01-29T22:51:10.679Z,14.32
2023-01-29T22:53:43.358Z,17.05
2023-01-29T22:56:11.982Z,13.40
2023-01-29T22:58:39.400Z,12.35
2023-01-29T23:01:07.549Z,12.98
2023-01-29T23:03:35.456Z,9.82
2023-01-29T23:06:04.049Z,12.70
2023-01-29T23:08:33.155Z,12.75
2023-01-29T23:11:14.664Z,14.23
2023-01-29T23:13:44.991Z,11.60
2023-01-29T23:16:13.374Z,16.50
2023-01-29T23:18:40.871Z,12.45
2023-01-29T23:21:08.429Z,12.05
2023-01-29T23:23:37.514Z,13.00
2023-01-29T23:26:26.926Z,12.27
2023-01-29T23:28:54.312Z,17.15
2023-01-29T23:31:21.747Z,20.08
2023-01-29T23:33:50.162Z,16.25
2023-01-29T23:36:17.824Z,17.23
2023-01-29T23:38:45.267Z,15.82
2023-01-29T23:41:12.720Z,16.10
2023-01-29T23:43:40.040Z,12.52
2023-01-29T23:46:12.486Z,15.57
2023-01-29T23:48:39.836Z,14.88
2023-01-29T23:51:07.290Z,14.07
2023-01-29T23:53:34.567Z,19.05
2023-01-29T23:56:03.930Z,14.95
2023-01-29T23:58:32.672Z,15.30
